Time;durP1;ratioP1;P1;durP2;ratioP2;P2;SDS_P1;SDS_P2;PMS_P1;PMS_P2;Temp;Humidity;BMP_temperature;BMP_pressure;BME280_temperature;BME280_humidity;BME280_pressure;Samples;Min_cycle;Max_cycle;Signal;HPM_P1;HPM_P2
2021/06/13 00:02:16;;;;;;;8.20;7.40;;;20.70;99.90;;;;;;5054517;28;20488;-55
2021/06/13 00:04:41;;;;;;;8.00;7.20;;;20.70;99.90;;;;;;5055105;28;20652;-56
2021/06/13 00:07:07;;;;;;;9.47;8.07;;;20.80;99.90;;;;;;5054595;28;20261;-56
2021/06/13 00:09:33;;;;;;;8.53;7.80;;;20.80;99.90;;;;;;5056702;28;20187;-56
2021/06/13 00:11:58;;;;;;;7.73;6.93;;;20.80;99.90;;;;;;5054062;28;20167;-53
2021/06/13 00:14:24;;;;;;;8.37;7.57;;;20.90;99.90;;;;;;5054444;28;20529;-52
2021/06/13 00:16:50;;;;;;;8.20;7.43;;;20.80;99.90;;;;;;5054189;28;20171;-56
2021/06/13 00:19:16;;;;;;;8.17;7.30;;;20.90;99.90;;;;;;5054005;28;20212;-57
2021/06/13 00:21:41;;;;;;;7.37;6.57;;;20.90;99.90;;;;;;5053941;28;20794;-52
2021/06/13 00:24:07;;;;;;;8.43;7.50;;;20.80;99.90;;;;;;5053938;28;20195;-56
2021/06/13 00:26:34;;;;;;;7.90;7.17;;;21.00;99.90;;;;;;5053659;28;20230;-54
2021/06/13 00:29:00;;;;;;;8.80;7.90;;;21.10;99.90;;;;;;5053792;28;20425;-55
2021/06/13 00:31:26;;;;;;;7.90;7.10;;;21.00;99.90;;;;;;5053705;28;20408;-57
2021/06/13 00:33:52;;;;;;;9.60;8.60;;;21.00;99.90;;;;;;5053860;28;20640;-57
2021/06/13 00:36:18;;;;;;;8.80;7.77;;;20.70;99.90;;;;;;5053922;28;20466;-55
2021/06/13 00:38:44;;;;;;;8.67;7.80;;;20.70;99.90;;;;;;5053832;28;20204;-55
2021/06/13 00:41:14;;;;;;;8.30;7.00;;;20.70;99.90;;;;;;5053485;28;20409;-55
2021/06/13 00:43:39;;;;;;;7.23;6.53;;;20.90;99.90;;;;;;5054217;28;20588;-55
2021/06/13 00:46:05;;;;;;;7.40;6.70;;;20.80;99.90;;;;;;5053567;28;20405;-52
2021/06/13 00:48:31;;;;;;;8.67;7.27;;;20.70;99.90;;;;;;5053663;28;20186;-55
2021/06/13 00:50:58;;;;;;;7.40;6.80;;;20.90;99.90;;;;;;5053853;28;20162;-55
2021/06/13 00:53:26;;;;;;;8.70;7.63;;;20.90;99.90;;;;;;5053203;28;20178;-55
2021/06/13 00:55:52;;;;;;;7.00;6.27;;;21.00;99.90;;;;;;5053433;28;20479;-54
2021/06/13 00:58:18;;;;;;;8.77;7.27;;;20.90;99.90;;;;;;5053214;28;20425;-52
2021/06/13 01:00:43;;;;;;;7.37;6.67;;;20.80;99.90;;;;;;5053204;28;20454;-55
2021/06/13 01:03:09;;;;;;;8.63;7.03;;;20.80;99.90;;;;;;5053294;28;20186;-54
2021/06/13 01:05:36;;;;;;;8.10;7.40;;;20.90;99.90;;;;;;5053589;28;20168;-56
2021/06/13 01:08:25;;;;;;;7.80;7.10;;;20.80;99.90;;;;;;5053184;28;20543;-51
2021/06/13 01:10:58;;;;;;;7.27;6.67;;;20.90;99.90;;;;;;5053243;28;20417;-55
2021/06/13 01:13:48;;;;;;;8.83;7.47;;;20.90;99.90;;;;;;5053151;28;20897;-55
2021/06/13 01:16:34;;;;;;;6.37;5.77;;;20.90;99.90;;;;;;5053042;28;20397;-56
2021/06/13 01:19:14;;;;;;;7.47;6.77;;;21.00;99.90;;;;;;5053048;28;20515;-51
2021/06/13 01:21:58;;;;;;;9.57;7.93;;;21.00;99.90;;;;;;5053428;28;20408;-49
2021/06/13 01:25:01;;;;;;;8.10;7.40;;;20.80;99.90;;;;;;5052951;28;20487;-52
2021/06/13 01:27:37;;;;;;;7.77;6.97;;;20.70;99.90;;;;;;5052653;28;20894;-54
2021/06/13 01:30:07;;;;;;;7.87;7.07;;;20.50;99.90;;;;;;5052997;28;20511;-55
2021/06/13 01:32:34;;;;;;;8.03;7.20;;;20.40;99.90;;;;;;5052869;28;20408;-55
2021/06/13 01:35:07;;;;;;;7.40;6.43;;;20.60;99.90;;;;;;5052903;28;20397;-54
2021/06/13 01:37:38;;;;;;;6.83;6.13;;;20.50;99.90;;;;;;5053542;28;20369;-55
2021/06/13 01:40:09;;;;;;;7.93;7.13;;;20.40;99.90;;;;;;5052904;28;20485;-51
2021/06/13 01:42:38;;;;;;;7.47;6.77;;;20.40;99.90;;;;;;5052685;28;20381;-52
2021/06/13 01:45:07;;;;;;;7.00;6.40;;;20.30;99.90;;;;;;5052820;28;20452;-53
2021/06/13 01:47:36;;;;;;;7.67;6.70;;;20.40;99.90;;;;;;5052791;28;20393;-53
2021/06/13 01:50:05;;;;;;;8.40;6.83;;;20.20;99.90;;;;;;5052731;28;20480;-56
2021/06/13 01:52:32;;;;;;;7.30;6.70;;;20.40;99.90;;;;;;5052728;28;20479;-52
2021/06/13 01:54:59;;;;;;;9.07;7.20;;;20.40;99.90;;;;;;5052940;28;20804;-56
2021/06/13 01:57:26;;;;;;;7.80;6.83;;;20.20;99.90;;;;;;5052399;28;20890;-55
2021/06/13 01:59:55;;;;;;;7.37;6.20;;;20.20;99.90;;;;;;5052624;28;20456;-54
2021/06/13 02:02:23;;;;;;;6.60;6.00;;;20.20;99.90;;;;;;5052603;28;20461;-54
2021/06/13 02:04:49;;;;;;;6.93;6.10;;;20.30;99.90;;;;;;5052565;28;20456;-53
2021/06/13 02:07:16;;;;;;;5.80;5.30;;;20.30;99.90;;;;;;5055672;28;20397;-55
2021/06/13 02:09:45;;;;;;;8.90;7.40;;;20.40;99.90;;;;;;5056509;28;20475;-54
2021/06/13 02:12:11;;;;;;;7.20;6.50;;;20.30;99.90;;;;;;5056667;28;20404;-54
2021/06/13 02:14:38;;;;;;;7.40;6.70;;;20.10;99.90;;;;;;5056730;28;20408;-56
2021/06/13 02:17:06;;;;;;;8.43;7.17;;;20.20;99.90;;;;;;5058852;28;20216;-54
2021/06/13 02:19:33;;;;;;;8.27;7.13;;;20.30;99.90;;;;;;5056534;28;20431;-54
2021/06/13 02:22:01;;;;;;;7.73;7.03;;;20.20;99.90;;;;;;5056358;28;20766;-53
2021/06/13 02:24:29;;;;;;;7.70;6.50;;;20.10;99.90;;;;;;5056210;28;21045;-56
2021/06/13 02:26:56;;;;;;;7.60;6.73;;;20.00;99.90;;;;;;5054991;28;20417;-57
2021/06/13 02:29:24;;;;;;;7.50;6.83;;;20.00;99.90;;;;;;5056406;28;20794;-54
2021/06/13 02:31:50;;;;;;;9.30;8.13;;;20.20;99.90;;;;;;5056118;28;20809;-55
2021/06/13 02:34:25;;;;;;;7.40;6.47;;;20.10;99.90;;;;;;5056162;28;20413;-52
2021/06/13 02:36:53;;;;;;;7.90;6.50;;;20.10;99.90;;;;;;5056360;28;20492;-53
2021/06/13 02:39:21;;;;;;;6.30;5.70;;;20.30;99.90;;;;;;5089380;22;20484;-52
2021/06/13 02:41:49;;;;;;;7.23;6.60;;;20.30;99.90;;;;;;5075923;28;20884;-48
2021/06/13 02:44:15;;;;;;;7.20;6.50;;;20.40;99.90;;;;;;5075946;28;20491;-47
2021/06/13 02:46:41;;;;;;;7.30;6.23;;;20.20;99.90;;;;;;5075841;28;20412;-50
2021/06/13 02:49:08;;;;;;;6.87;6.17;;;20.20;99.90;;;;;;5075826;28;20481;-48
2021/06/13 02:51:37;;;;;;;6.53;5.60;;;20.10;99.90;;;;;;5075856;28;20407;-53
2021/06/13 02:54:09;;;;;;;6.73;5.77;;;20.00;99.90;;;;;;5074847;28;20416;-49
2021/06/13 02:56:35;;;;;;;9.73;6.57;;;20.20;99.90;;;;;;5073040;28;20412;-52
2021/06/13 02:59:23;;;;;;;8.47;6.13;;;20.00;99.90;;;;;;5076399;28;20426;-53
2021/06/13 03:01:55;;;;;;;7.53;6.03;;;19.90;99.90;;;;;;5075732;28;20166;-48
2021/06/13 03:04:22;;;;;;;8.13;5.30;;;19.90;99.90;;;;;;5075851;28;20424;-50
2021/06/13 03:06:55;;;;;;;7.83;6.70;;;19.70;99.90;;;;;;5075597;28;20393;-50
2021/06/13 03:09:23;;;;;;;6.33;5.57;;;19.80;99.90;;;;;;5075572;28;20427;-48
2021/06/13 03:11:49;;;;;;;6.53;5.80;;;19.80;99.90;;;;;;5075363;28;20742;-51
2021/06/13 03:14:16;;;;;;;9.17;6.90;;;19.90;99.90;;;;;;5075438;28;20416;-52
2021/06/13 03:16:44;;;;;;;10.27;7.10;;;19.80;99.90;;;;;;5075108;28;20539;-50
2021/06/13 03:19:11;;;;;;;9.50;6.33;;;19.70;99.90;;;;;;5075350;28;20435;-50
2021/06/13 03:21:38;;;;;;;7.90;6.50;;;19.80;99.90;;;;;;5075396;28;20399;-48
2021/06/13 03:24:05;;;;;;;8.33;6.70;;;19.90;99.90;;;;;;5075174;28;20488;-50
2021/06/13 03:26:31;;;;;;;7.30;6.20;;;19.90;99.90;;;;;;5075062;28;20412;-55
2021/06/13 03:28:59;;;;;;;7.47;6.63;;;20.00;99.90;;;;;;5075114;28;20420;-51
2021/06/13 03:31:25;;;;;;;7.53;6.20;;;19.90;99.90;;;;;;5074957;28;20168;-48
2021/06/13 03:33:53;;;;;;;8.17;6.93;;;19.80;99.90;;;;;;5075507;28;20411;-54
2021/06/13 03:36:19;;;;;;;6.80;6.30;;;19.80;99.90;;;;;;5075105;28;20896;-53
2021/06/13 03:38:47;;;;;;;6.83;6.13;;;20.00;99.90;;;;;;5074868;28;20479;-52
2021/06/13 03:41:16;;;;;;;6.07;5.43;;;19.90;99.90;;;;;;5056796;28;20423;-55
2021/06/13 03:43:42;;;;;;;6.50;5.80;;;19.80;99.90;;;;;;5056917;28;20480;-52
2021/06/13 03:46:09;;;;;;;7.40;6.60;;;19.80;99.90;;;;;;5076298;28;20411;-55
2021/06/13 03:48:35;;;;;;;6.70;5.97;;;19.70;99.90;;;;;;5074765;28;20478;-53
2021/06/13 03:51:03;;;;;;;7.50;5.80;;;19.70;99.90;;;;;;5075096;28;20409;-53
2021/06/13 03:53:28;;;;;;;8.23;6.57;;;19.60;99.90;;;;;;5074642;28;20419;-53
2021/06/13 03:55:58;;;;;;;5.47;4.90;;;19.50;99.90;;;;;;5074345;28;20420;-55
2021/06/13 03:58:25;;;;;;;8.07;5.80;;;19.40;99.90;;;;;;5074902;28;20205;-50
2021/06/13 04:00:53;;;;;;;7.47;5.47;;;19.50;99.90;;;;;;5074369;28;20892;-50
2021/06/13 04:03:20;;;;;;;8.20;6.10;;;19.50;99.90;;;;;;5074695;28;20448;-53
2021/06/13 04:05:47;;;;;;;7.07;6.37;;;19.40;99.90;;;;;;5074794;28;20481;-52
2021/06/13 04:08:15;;;;;;;5.93;5.30;;;19.30;99.90;;;;;;5074917;28;20889;-53
2021/06/13 04:10:51;;;;;;;6.50;4.90;;;19.20;99.90;;;;;;5074597;28;20838;-52
2021/06/13 04:13:17;;;;;;;6.60;5.00;;;19.40;99.90;;;;;;5076839;28;20396;-55
2021/06/13 04:15:44;;;;;;;7.17;5.57;;;19.50;99.90;;;;;;5074382;28;21074;-55
2021/06/13 04:18:11;;;;;;;7.33;5.53;;;19.50;99.90;;;;;;5074114;28;20893;-49
2021/06/13 04:20:37;;;;;;;6.27;4.87;;;19.40;99.90;;;;;;5074089;28;20400;-54
2021/06/13 04:23:06;;;;;;;8.23;5.20;;;19.40;99.90;;;;;;5074348;28;20435;-48
2021/06/13 04:25:32;;;;;;;8.60;5.80;;;19.50;99.90;;;;;;5074296;28;20412;-52
2021/06/13 04:27:59;;;;;;;6.93;5.80;;;19.50;99.90;;;;;;5073646;28;20408;-52
2021/06/13 04:30:25;;;;;;;7.33;5.67;;;19.50;99.90;;;;;;5073668;28;20424;-51
2021/06/13 04:32:51;;;;;;;8.03;5.67;;;19.40;99.90;;;;;;5073956;28;20764;-51
2021/06/13 04:35:17;;;;;;;8.03;6.83;;;19.20;99.90;;;;;;5073801;28;20420;-54
2021/06/13 04:37:42;;;;;;;8.10;5.70;;;19.20;99.90;;;;;;5073854;28;20162;-53
2021/06/13 04:40:09;;;;;;;8.83;5.90;;;19.00;99.90;;;;;;5073971;28;20505;-52
2021/06/13 04:42:36;;;;;;;8.90;6.20;;;18.90;99.90;;;;;;5073615;28;20252;-49
2021/06/13 04:45:06;;;;;;;7.93;6.67;;;19.00;99.90;;;;;;5073686;28;20451;-52
2021/06/13 04:47:32;;;;;;;7.70;5.53;;;18.80;99.90;;;;;;5073789;28;20389;-54
2021/06/13 04:49:58;;;;;;;7.70;5.87;;;18.90;99.90;;;;;;5073689;28;20913;-51
2021/06/13 04:52:28;;;;;;;7.90;5.30;;;18.80;99.90;;;;;;5073680;28;20162;-50
2021/06/13 04:54:56;;;;;;;7.00;4.70;;;18.70;99.90;;;;;;5073897;28;20878;-53
2021/06/13 04:57:22;;;;;;;12.50;6.27;;;18.70;99.90;;;;;;5073441;28;20411;-52
2021/06/13 04:59:47;;;;;;;5.87;5.03;;;18.70;99.90;;;;;;5073839;28;20416;-50
2021/06/13 05:02:15;;;;;;;5.97;5.37;;;18.70;99.90;;;;;;5073370;28;20169;-51
2021/06/13 05:04:41;;;;;;;10.10;4.90;;;18.80;99.90;;;;;;5073704;28;20201;-56
2021/06/13 05:07:06;;;;;;;6.37;5.30;;;18.80;99.90;;;;;;5073731;28;20473;-52
2021/06/13 05:09:32;;;;;;;5.63;5.03;;;18.90;99.90;;;;;;5073580;28;20419;-56
2021/06/13 05:11:58;;;;;;;6.33;5.30;;;19.10;99.90;;;;;;5073170;28;20170;-56
2021/06/13 05:14:23;;;;;;;7.67;6.27;;;19.20;99.90;;;;;;5073369;28;20659;-55
2021/06/13 05:16:49;;;;;;;6.90;5.93;;;19.20;99.90;;;;;;5073129;28;20174;-55
2021/06/13 05:19:15;;;;;;;7.57;5.23;;;19.20;99.90;;;;;;5073199;28;20181;-57
2021/06/13 05:21:40;;;;;;;7.23;5.57;;;19.10;99.90;;;;;;5073280;28;20170;-52
2021/06/13 05:24:06;;;;;;;8.53;5.40;;;19.20;99.90;;;;;;5073355;28;20194;-52
2021/06/13 05:26:32;;;;;;;7.50;5.37;;;19.30;99.90;;;;;;5073107;28;20277;-53
2021/06/13 05:28:58;;;;;;;4.83;4.40;;;19.40;99.90;;;;;;5073103;28;20431;-54
2021/06/13 05:31:24;;;;;;;5.93;5.30;;;19.50;99.90;;;;;;5073225;28;20638;-56
2021/06/13 05:33:50;;;;;;;6.70;4.57;;;19.60;99.90;;;;;;5073035;28;20514;-56
2021/06/13 05:36:15;;;;;;;7.70;5.17;;;19.60;99.90;;;;;;5073312;28;20347;-57
2021/06/13 05:38:43;;;;;;;6.27;5.23;;;19.60;99.90;;;;;;5072995;28;20743;-54
2021/06/13 05:41:11;;;;;;;7.60;4.90;;;19.30;99.90;;;;;;5072212;28;20211;-54
2021/06/13 05:43:37;;;;;;;6.93;4.97;;;19.20;99.90;;;;;;5072882;28;20436;-54
2021/06/13 05:46:03;;;;;;;5.77;4.60;;;19.20;99.90;;;;;;5072932;28;20771;-53
2021/06/13 05:48:29;;;;;;;9.40;4.47;;;19.20;99.90;;;;;;5071734;28;20443;-55
2021/06/13 05:50:54;;;;;;;8.13;4.63;;;19.40;99.90;;;;;;5072691;28;20417;-56
2021/06/13 05:53:20;;;;;;;6.80;4.63;;;19.50;99.90;;;;;;5072815;28;20410;-55
2021/06/13 05:55:46;;;;;;;5.20;4.30;;;19.30;99.90;;;;;;5072783;28;20558;-56
2021/06/13 05:58:11;;;;;;;6.80;4.63;;;19.40;99.90;;;;;;5072448;28;20170;-52
2021/06/13 06:00:38;;;;;;;8.47;4.47;;;19.70;99.90;;;;;;5054731;28;20174;-56
2021/06/13 06:03:05;;;;;;;8.30;5.33;;;20.00;99.90;;;;;;5072512;28;20250;-56
2021/06/13 06:05:31;;;;;;;5.43;4.10;;;20.10;99.90;;;;;;5072719;28;20411;-55
2021/06/13 06:07:57;;;;;;;7.30;4.90;;;20.10;99.90;;;;;;5089543;28;20400;-56
2021/06/13 06:10:25;;;;;;;5.63;3.93;;;20.00;99.90;;;;;;5093190;28;20423;-56
2021/06/13 06:12:53;;;;;;;6.60;4.60;;;19.90;99.90;;;;;;5092700;28;20162;-56
2021/06/13 06:15:20;;;;;;;13.90;4.77;;;19.80;99.90;;;;;;5092852;28;20446;-56
2021/06/13 06:17:47;;;;;;;6.33;5.10;;;19.70;99.90;;;;;;5092627;28;20406;-56
2021/06/13 06:20:15;;;;;;;6.03;4.70;;;19.80;99.90;;;;;;5092618;28;20839;-53
2021/06/13 06:22:41;;;;;;;5.00;4.50;;;19.80;99.90;;;;;;5092779;28;20494;-54
2021/06/13 06:25:09;;;;;;;6.50;4.70;;;19.90;99.90;;;;;;5080198;28;20836;-56
2021/06/13 06:27:36;;;;;;;7.43;5.20;;;19.60;99.90;;;;;;5073212;28;20408;-56
2021/06/13 06:30:02;;;;;;;5.17;4.67;;;19.60;99.90;;;;;;5072620;28;20420;-56
2021/06/13 06:32:28;;;;;;;6.73;4.47;;;19.80;99.90;;;;;;5072464;28;20775;-55
2021/06/13 06:34:54;;;;;;;4.57;4.17;;;19.80;99.90;;;;;;5072396;28;20407;-56
2021/06/13 06:37:19;;;;;;;6.53;5.83;;;19.70;99.90;;;;;;5072421;28;20560;-55
2021/06/13 06:39:45;;;;;;;10.33;4.83;;;19.70;99.90;;;;;;5072159;28;20263;-54
2021/06/13 06:42:10;;;;;;;5.10;4.27;;;19.70;99.90;;;;;;5072417;28;20166;-51
2021/06/13 06:44:36;;;;;;;6.40;4.07;;;19.60;99.90;;;;;;5072526;28;20217;-53
2021/06/13 06:47:02;;;;;;;7.20;5.10;;;19.80;99.90;;;;;;5072617;28;20173;-53
2021/06/13 06:49:32;;;;;;;6.10;4.23;;;19.70;99.90;;;;;;5072523;28;20251;-54
2021/06/13 06:51:58;;;;;;;6.07;5.10;;;19.80;99.90;;;;;;5073187;28;20194;-54
2021/06/13 06:54:24;;;;;;;4.47;3.67;;;19.60;99.90;;;;;;5075999;28;20435;-53
2021/06/13 06:56:49;;;;;;;4.27;3.77;;;19.80;99.90;;;;;;5075611;28;20404;-52
2021/06/13 06:59:15;;;;;;;7.07;4.43;;;20.00;99.90;;;;;;5075756;28;20217;-54
2021/06/13 07:01:40;;;;;;;5.57;4.30;;;20.00;99.90;;;;;;5075875;28;20196;-56
2021/06/13 07:04:06;;;;;;;9.23;4.77;;;19.90;99.90;;;;;;5075953;28;20323;-54
2021/06/13 07:06:32;;;;;;;5.27;4.73;;;20.00;99.90;;;;;;5075569;28;20173;-55
2021/06/13 07:08:58;;;;;;;5.70;4.90;;;19.90;99.90;;;;;;5075505;28;20182;-53
2021/06/13 07:11:23;;;;;;;5.50;5.00;;;20.00;99.90;;;;;;5075672;28;20415;-50
2021/06/13 07:13:49;;;;;;;4.87;4.13;;;20.10;99.90;;;;;;5075439;28;20173;-53
2021/06/13 07:16:15;;;;;;;4.70;4.20;;;20.20;99.90;;;;;;5075852;28;20170;-52
2021/06/13 07:18:41;;;;;;;6.70;4.23;;;20.00;99.90;;;;;;5075305;28;20511;-54
2021/06/13 07:21:07;;;;;;;7.43;5.07;;;20.10;99.90;;;;;;5075425;28;20626;-56
2021/06/13 07:23:33;;;;;;;5.17;4.67;;;20.10;99.90;;;;;;5075680;28;20221;-49
2021/06/13 07:25:59;;;;;;;4.50;4.10;;;20.20;99.90;;;;;;5075685;28;20454;-49
2021/06/13 07:28:25;;;;;;;4.77;4.37;;;20.30;99.90;;;;;;5075089;28;20830;-51
2021/06/13 07:30:51;;;;;;;6.43;4.80;;;20.60;99.90;;;;;;5075262;28;20245;-54
2021/06/13 07:33:16;;;;;;;9.30;4.80;;;20.60;99.90;;;;;;5075171;28;20650;-52
2021/06/13 07:35:42;;;;;;;4.53;4.13;;;20.70;99.90;;;;;;5075255;28;20257;-56
2021/06/13 07:38:07;;;;;;;6.27;4.57;;;20.70;99.90;;;;;;5075204;28;20170;-52
2021/06/13 07:40:33;;;;;;;5.83;4.63;;;20.60;99.90;;;;;;5075091;28;20181;-56
2021/06/13 07:43:00;;;;;;;5.67;4.40;;;20.40;99.90;;;;;;5074672;28;20657;-56
2021/06/13 07:45:26;;;;;;;5.47;4.87;;;20.40;99.90;;;;;;5075104;28;20817;-56
2021/06/13 07:47:53;;;;;;;6.80;4.30;;;20.30;99.90;;;;;;5075001;28;20888;-54
2021/06/13 07:50:20;;;;;;;5.33;4.63;;;20.40;99.90;;;;;;5075014;28;20789;-55
2021/06/13 07:52:47;;;;;;;5.27;4.63;;;20.40;99.90;;;;;;5075110;28;20400;-56
2021/06/13 07:55:15;;;;;;;4.70;4.30;;;20.20;99.80;;;;;;5074671;28;20414;-55
2021/06/13 07:57:44;;;;;;;5.53;4.73;;;20.30;99.90;;;;;;5074315;28;20416;-54
2021/06/13 08:00:15;;;;;;;5.33;4.53;;;20.40;99.90;;;;;;5074864;28;20523;-54
2021/06/13 08:02:41;;;;;;;5.20;4.70;;;20.30;99.90;;;;;;5074681;28;20393;-53
2021/06/13 08:05:10;;;;;;;5.90;4.00;;;20.30;99.80;;;;;;5076303;28;20868;-54
2021/06/13 08:07:37;;;;;;;8.40;4.23;;;20.20;99.90;;;;;;5074677;28;20531;-56
2021/06/13 08:10:05;;;;;;;6.20;4.37;;;20.20;99.90;;;;;;5074466;28;20474;-57
2021/06/13 08:12:31;;;;;;;5.20;4.17;;;20.30;99.90;;;;;;5074068;28;20404;-52
2021/06/13 08:14:57;;;;;;;6.40;4.00;;;20.60;99.90;;;;;;5074350;28;20412;-56
2021/06/13 08:17:22;;;;;;;6.97;4.00;;;20.80;99.40;;;;;;5074282;28;20446;-55
2021/06/13 08:19:48;;;;;;;7.30;4.90;;;20.90;99.30;;;;;;5074156;28;20197;-54
2021/06/13 08:22:13;;;;;;;5.70;4.50;;;20.90;98.90;;;;;;5074509;28;20584;-56
2021/06/13 08:24:39;;;;;;;5.70;4.67;;;20.70;99.10;;;;;;5074239;28;20280;-55
2021/06/13 08:27:06;;;;;;;8.10;4.97;;;20.70;98.90;;;;;;5073891;28;20535;-53
2021/06/13 08:29:33;;;;;;;6.70;5.10;;;20.60;99.30;;;;;;5074064;28;20192;-55
2021/06/13 08:31:58;;;;;;;7.87;4.43;;;20.50;98.90;;;;;;5073876;28;20768;-53
2021/06/13 08:34:25;;;;;;;5.30;4.73;;;20.60;99.40;;;;;;5074249;28;20412;-54
2021/06/13 08:36:51;;;;;;;4.97;4.50;;;20.70;99.30;;;;;;5073968;28;20260;-55
2021/06/13 08:39:16;;;;;;;7.10;5.17;;;20.70;99.10;;;;;;5099745;22;20504;-57
2021/06/13 08:41:42;;;;;;;4.80;4.40;;;21.00;99.10;;;;;;5070875;28;20444;-57
2021/06/13 08:44:08;;;;;;;7.37;4.97;;;20.80;99.30;;;;;;5074089;28;20190;-58
2021/06/13 08:46:37;;;;;;;6.30;5.70;;;20.80;99.10;;;;;;5073652;28;20535;-57
2021/06/13 08:49:03;;;;;;;6.10;4.77;;;20.60;99.40;;;;;;5055859;28;20662;-53
2021/06/13 08:51:28;;;;;;;7.33;4.63;;;20.50;99.50;;;;;;5073875;28;20400;-56
2021/06/13 08:53:54;;;;;;;4.90;4.30;;;20.60;99.40;;;;;;5073910;28;20189;-56
2021/06/13 08:56:22;;;;;;;6.57;4.90;;;20.90;99.60;;;;;;5074059;28;20180;-56
2021/06/13 08:58:49;;;;;;;6.67;4.40;;;21.20;99.50;;;;;;5073491;28;20404;-56
2021/06/13 09:01:15;;;;;;;6.43;4.50;;;21.20;98.60;;;;;;5073402;28;20444;-58
2021/06/13 09:03:41;;;;;;;5.17;3.80;;;21.20;98.00;;;;;;5073365;28;20482;-56
2021/06/13 09:06:07;;;;;;;5.50;4.07;;;21.30;97.70;;;;;;5073895;28;20763;-56
2021/06/13 09:08:41;;;;;;;5.73;4.13;;;21.50;97.60;;;;;;5056506;28;20775;-54
2021/06/13 09:11:09;;;;;;;3.90;3.50;;;21.70;97.50;;;;;;5074438;28;20408;-56
2021/06/13 09:13:37;;;;;;;4.10;3.70;;;21.70;97.50;;;;;;5073194;28;20915;-56
2021/06/13 09:16:06;;;;;;;6.00;4.47;;;21.80;97.50;;;;;;5073348;28;20408;-56
2021/06/13 09:18:36;;;;;;;5.30;4.80;;;21.50;96.90;;;;;;5055313;28;20415;-56
2021/06/13 09:21:10;;;;;;;6.17;4.10;;;21.70;97.30;;;;;;5073415;28;20436;-56
2021/06/13 09:23:38;;;;;;;5.33;4.73;;;21.80;97.20;;;;;;5074101;28;20604;-55
2021/06/13 09:26:06;;;;;;;8.00;5.47;;;21.80;97.20;;;;;;5073012;28;20908;-56
2021/06/13 09:28:35;;;;;;;6.57;5.37;;;21.60;97.50;;;;;;5072892;28;20908;-59
2021/06/13 09:31:01;;;;;;;5.93;4.30;;;21.40;98.10;;;;;;5073103;28;20392;-57
2021/06/13 09:33:29;;;;;;;6.10;4.10;;;21.50;97.80;;;;;;5073029;28;20780;-57
2021/06/13 09:35:56;;;;;;;7.93;4.60;;;21.70;97.90;;;;;;5072894;28;20929;-55
2021/06/13 09:38:29;;;;;;;5.13;4.60;;;21.90;97.40;;;;;;5073581;28;20416;-57
2021/06/13 09:41:10;;;;;;;6.03;4.10;;;22.10;96.80;;;;;;5038228;28;20455;-57
2021/06/13 09:44:06;;;;;;;4.00;3.60;;;22.20;96.70;;;;;;5072541;28;20952;-57
2021/06/13 09:46:34;;;;;;;5.90;3.63;;;22.20;95.90;;;;;;5072994;28;20384;-57
2021/06/13 09:49:14;;;;;;;3.50;2.90;;;22.20;95.80;;;;;;5073233;28;20421;-56
2021/06/13 09:51:48;;;;;;;3.27;2.83;;;22.20;94.70;;;;;;5073415;28;20868;-58
2021/06/13 09:54:19;;;;;;;4.63;3.70;;;22.10;95.20;;;;;;5072876;28;20915;-54
2021/06/13 09:56:45;;;;;;;4.83;3.20;;;22.00;95.10;;;;;;5073009;28;20396;-57
2021/06/13 09:59:15;;;;;;;4.80;3.57;;;22.10;94.30;;;;;;5074838;28;20428;-57
2021/06/13 10:01:47;;;;;;;5.23;3.70;;;22.10;93.90;;;;;;5072579;28;20400;-55
2021/06/13 10:04:19;;;;;;;3.93;3.40;;;22.10;94.90;;;;;;5072873;28;20451;-58
2021/06/13 10:06:53;;;;;;;3.67;3.37;;;22.40;94.10;;;;;;5072835;28;20404;-56
2021/06/13 10:09:20;;;;;;;5.10;3.50;;;22.50;94.40;;;;;;5072606;28;20427;-57
2021/06/13 10:11:50;;;;;;;8.43;3.40;;;22.70;94.40;;;;;;5072832;28;20475;-58
2021/06/13 10:14:17;;;;;;;3.60;3.27;;;22.80;94.00;;;;;;5072733;28;20508;-56
2021/06/13 10:16:51;;;;;;;3.60;2.73;;;22.90;93.50;;;;;;5072506;28;20408;-58
2021/06/13 10:19:28;;;;;;;4.70;3.40;;;23.00;94.00;;;;;;5072451;28;20470;-57
2021/06/13 10:21:57;;;;;;;4.13;3.27;;;23.10;94.20;;;;;;5072739;28;20401;-57
2021/06/13 10:24:25;;;;;;;3.93;3.17;;;23.00;93.80;;;;;;5072276;28;20444;-55
2021/06/13 10:26:53;;;;;;;5.13;3.17;;;23.10;93.60;;;;;;5073631;28;20411;-56
2021/06/13 10:29:20;;;;;;;3.50;3.00;;;23.20;93.20;;;;;;5075993;28;20959;-56
2021/06/13 10:31:49;;;;;;;4.90;3.30;;;22.90;92.60;;;;;;5076001;28;20931;-56
2021/06/13 10:34:17;;;;;;;4.43;3.37;;;22.80;93.00;;;;;;5076097;28;20404;-56
2021/06/13 10:36:42;;;;;;;5.77;3.10;;;22.90;93.80;;;;;;5076037;28;20423;-55
2021/06/13 10:39:13;;;;;;;6.03;3.53;;;23.00;92.90;;;;;;5075861;28;20440;-57
2021/06/13 10:41:40;;;;;;;6.90;3.70;;;23.10;93.80;;;;;;5076383;28;20515;-57
2021/06/13 10:44:10;;;;;;;5.43;3.80;;;23.40;94.10;;;;;;5075906;28;20475;-58
2021/06/13 10:46:38;;;;;;;4.20;3.23;;;23.50;93.40;;;;;;5076207;28;20392;-58
2021/06/13 10:49:05;;;;;;;4.40;3.03;;;23.20;92.00;;;;;;5075871;28;20459;-56
2021/06/13 10:51:44;;;;;;;4.83;3.00;;;22.80;91.90;;;;;;5076131;28;20473;-57
2021/06/13 10:54:19;;;;;;;4.80;3.20;;;23.10;92.70;;;;;;5076014;28;20439;-56
2021/06/13 10:56:44;;;;;;;4.40;2.90;;;23.30;92.40;;;;;;5076151;28;20407;-56
2021/06/13 10:59:17;;;;;;;4.13;3.30;;;23.40;92.30;;;;;;5075411;28;20433;-54
2021/06/13 11:02:04;;;;;;;5.07;3.23;;;23.40;91.90;;;;;;5076135;28;20585;-56
2021/06/13 11:05:00;;;;;;;3.30;2.73;;;23.10;91.30;;;;;;5075707;28;20440;-55
2021/06/13 11:07:28;;;;;;;3.10;2.60;;;22.90;91.10;;;;;;5075997;28;20404;-55
2021/06/13 11:10:09;;;;;;;6.40;3.50;;;22.90;91.60;;;;;;5075691;28;20416;-57
2021/06/13 11:13:16;;;;;;;5.00;3.57;;;23.40;92.10;;;;;;5057449;28;20414;-58
2021/06/13 11:15:47;;;;;;;5.20;2.83;;;23.50;90.40;;;;;;5058071;28;20974;-58
2021/06/13 11:18:23;;;;;;;3.40;2.60;;;23.70;90.90;;;;;;5075311;28;20368;-56
2021/06/13 11:21:04;;;;;;;7.23;2.70;;;24.00;90.80;;;;;;5075735;28;20404;-58
2021/06/13 11:23:29;;;;;;;6.47;4.13;;;24.30;89.90;;;;;;5075582;28;20780;-58
2021/06/13 11:25:57;;;;;;;3.60;2.70;;;24.30;90.90;;;;;;5075563;28;20466;-58
2021/06/13 11:28:27;;;;;;;4.77;3.27;;;23.90;90.30;;;;;;5075317;28;20181;-57
2021/06/13 11:31:08;;;;;;;3.60;2.77;;;24.20;90.80;;;;;;5075517;28;20477;-56
2021/06/13 11:33:39;;;;;;;5.30;2.90;;;25.30;87.10;;;;;;5073049;28;20424;-57
2021/06/13 11:36:23;;;;;;;4.00;3.50;;;26.70;80.60;;;;;;5059297;28;20894;-57
2021/06/13 11:39:01;;;;;;;3.47;2.70;;;28.40;73.70;;;;;;5055005;28;20409;-58
2021/06/13 11:41:42;;;;;;;3.40;2.20;;;28.90;71.00;;;;;;5074673;28;20396;-58
2021/06/13 11:44:10;;;;;;;3.67;2.10;;;29.80;68.00;;;;;;5074936;28;20444;-57
2021/06/13 11:46:41;;;;;;;3.30;2.90;;;30.30;62.70;;;;;;5074889;28;20900;-54
2021/06/13 11:49:15;;;;;;;5.03;2.60;;;29.10;64.70;;;;;;5074675;28;20421;-53
2021/06/13 11:52:02;;;;;;;3.07;2.50;;;29.70;64.60;;;;;;5075041;28;20471;-56
2021/06/13 11:54:38;;;;;;;4.33;2.17;;;29.90;61.50;;;;;;5074917;28;20444;-56
2021/06/13 11:57:24;;;;;;;3.73;2.77;;;30.00;63.00;;;;;;5074692;28;20519;-58
2021/06/13 11:59:50;;;;;;;3.93;2.37;;;31.10;59.70;;;;;;5076180;28;20434;-58
2021/06/13 12:02:22;;;;;;;4.67;2.80;;;32.10;57.90;;;;;;5074746;28;20432;-57
2021/06/13 12:04:48;;;;;;;4.30;2.20;;;31.50;58.30;;;;;;5074784;28;20202;-57
2021/06/13 12:07:17;;;;;;;3.80;2.30;;;31.60;57.90;;;;;;5075417;28;20915;-56
2021/06/13 12:09:48;;;;;;;3.07;2.20;;;31.30;54.30;;;;;;5074392;28;20243;-55
2021/06/13 12:12:14;;;;;;;4.50;2.27;;;31.80;54.70;;;;;;5074301;28;20423;-54
2021/06/13 12:14:42;;;;;;;4.93;2.20;;;31.90;56.90;;;;;;5074072;28;20427;-57
2021/06/13 12:17:14;;;;;;;2.77;2.20;;;32.00;52.90;;;;;;5074405;28;20547;-57
2021/06/13 12:19:44;;;;;;;4.23;3.13;;;31.90;54.00;;;;;;5074468;28;20489;-57
2021/06/13 12:22:28;;;;;;;3.77;2.57;;;32.00;53.60;;;;;;5074150;28;20491;-56
2021/06/13 12:27:33;;;;;;;3.30;2.43;;;31.10;54.50;;;;;;5074163;28;20479;-57
2021/06/13 12:30:02;;;;;;;2.53;2.20;;;31.10;55.50;;;;;;5074388;28;20417;-57
2021/06/13 12:32:28;;;;;;;3.10;2.23;;;32.20;54.60;;;;;;5073772;28;20495;-57
2021/06/13 12:35:05;;;;;;;3.00;2.33;;;33.80;52.10;;;;;;5074178;28;20413;-55
2021/06/13 12:37:30;;;;;;;2.57;2.37;;;34.30;49.60;;;;;;5073848;28;20939;-53
2021/06/13 12:40:03;;;;;;;3.00;2.20;;;33.30;51.30;;;;;;5073710;28;20443;-56
2021/06/13 12:42:29;;;;;;;3.13;1.73;;;33.60;47.30;;;;;;5073826;28;20615;-56
2021/06/13 12:45:11;;;;;;;2.47;1.53;;;33.40;47.10;;;;;;5073599;28;20448;-57
2021/06/13 12:47:38;;;;;;;1.97;1.80;;;34.40;45.00;;;;;;5073380;28;20404;-57
2021/06/13 12:50:05;;;;;;;2.23;2.00;;;34.20;45.50;;;;;;5073186;28;20485;-58
2021/06/13 12:52:31;;;;;;;3.27;2.07;;;32.60;46.60;;;;;;5073969;28;20825;-57
2021/06/13 12:55:02;;;;;;;2.60;2.00;;;33.10;46.40;;;;;;5073550;28;20432;-57
2021/06/13 12:57:28;;;;;;;1.90;1.73;;;33.60;46.70;;;;;;5073583;28;20171;-58